sensor_id;sensor_type;location;lat;lon;timestamp;P1;durP1;ratioP1;P2;durP2;ratioP2
57593;SDS011;43423;46.510;6.686;2022-12-20T00:00:10;4.15;;;2.25;;
57593;SDS011;43423;46.510;6.686;2022-12-20T00:02:56;6.22;;;2.53;;
57593;SDS011;43423;46.510;6.686;2022-12-20T00:05:22;5.38;;;2.63;;
57593;SDS011;43423;46.510;6.686;2022-12-20T00:07:48;2.78;;;2.03;;
57593;SDS011;43423;46.510;6.686;2022-12-20T00:10:13;7.43;;;2.38;;
57593;SDS011;43423;46.510;6.686;2022-12-20T00:12:39;4.05;;;2.22;;
57593;SDS011;43423;46.510;6.686;2022-12-20T00:15:04;4.47;;;2.13;;
57593;SDS011;43423;46.510;6.686;2022-12-20T00:17:30;4.72;;;2.10;;
57593;SDS011;43423;46.510;6.686;2022-12-20T00:19:56;4.38;;;2.25;;
57593;SDS011;43423;46.510;6.686;2022-12-20T00:22:22;5.70;;;2.13;;
57593;SDS011;43423;46.510;6.686;2022-12-20T00:24:49;5.07;;;1.80;;
57593;SDS011;43423;46.510;6.686;2022-12-20T00:27:15;4.28;;;2.03;;
57593;SDS011;43423;46.510;6.686;2022-12-20T00:29:40;2.78;;;1.83;;
57593;SDS011;43423;46.510;6.686;2022-12-20T00:32:06;4.50;;;2.17;;
57593;SDS011;43423;46.510;6.686;2022-12-20T00:34:31;2.97;;;2.03;;
57593;SDS011;43423;46.510;6.686;2022-12-20T00:36:57;4.65;;;2.30;;
57593;SDS011;43423;46.510;6.686;2022-12-20T00:39:23;8.15;;;2.78;;
57593;SDS011;43423;46.510;6.686;2022-12-20T00:41:48;4.47;;;2.45;;
57593;SDS011;43423;46.510;6.686;2022-12-20T00:44:14;5.82;;;2.65;;
57593;SDS011;43423;46.510;6.686;2022-12-20T00:46:40;4.85;;;2.50;;
57593;SDS011;43423;46.510;6.686;2022-12-20T00:49:05;5.45;;;2.40;;
57593;SDS011;43423;46.510;6.686;2022-12-20T00:51:31;5.15;;;3.00;;
57593;SDS011;43423;46.510;6.686;2022-12-20T00:53:57;7.75;;;2.65;;
57593;SDS011;43423;46.510;6.686;2022-12-20T00:56:23;4.65;;;2.53;;
57593;SDS011;43423;46.510;6.686;2022-12-20T00:58:48;4.47;;;2.50;;
57593;SDS011;43423;46.510;6.686;2022-12-20T01:01:16;6.40;;;2.63;;
57593;SDS011;43423;46.510;6.686;2022-12-20T01:03:50;4.20;;;2.35;;
57593;SDS011;43423;46.510;6.686;2022-12-20T01:06:17;4.47;;;2.55;;
57593;SDS011;43423;46.510;6.686;2022-12-20T01:08:44;6.03;;;2.70;;
57593;SDS011;43423;46.510;6.686;2022-12-20T01:11:14;5.85;;;2.55;;
57593;SDS011;43423;46.510;6.686;2022-12-20T01:13:52;3.78;;;2.30;;
57593;SDS011;43423;46.510;6.686;2022-12-20T01:16:24;4.75;;;2.28;;
57593;SDS011;43423;46.510;6.686;2022-12-20T01:18:54;4.30;;;2.78;;
57593;SDS011;43423;46.510;6.686;2022-12-20T01:21:20;4.53;;;2.42;;
57593;SDS011;43423;46.510;6.686;2022-12-20T01:23:48;4.28;;;2.58;;
57593;SDS011;43423;46.510;6.686;2022-12-20T01:26:15;4.25;;;2.53;;
57593;SDS011;43423;46.510;6.686;2022-12-20T01:28:44;4.55;;;2.60;;
57593;SDS011;43423;46.510;6.686;2022-12-20T01:31:15;4.07;;;2.45;;
57593;SDS011;43423;46.510;6.686;2022-12-20T01:33:42;5.18;;;2.63;;
57593;SDS011;43423;46.510;6.686;2022-12-20T01:36:16;5.43;;;2.53;;
57593;SDS011;43423;46.510;6.686;2022-12-20T01:38:43;6.85;;;2.65;;
57593;SDS011;43423;46.510;6.686;2022-12-20T01:41:16;4.55;;;2.88;;
57593;SDS011;43423;46.510;6.686;2022-12-20T01:46:20;5.18;;;2.80;;
57593;SDS011;43423;46.510;6.686;2022-12-20T01:48:52;5.68;;;3.10;;
57593;SDS011;43423;46.510;6.686;2022-12-20T01:51:24;3.97;;;2.30;;
57593;SDS011;43423;46.510;6.686;2022-12-20T01:53:55;5.75;;;3.08;;
57593;SDS011;43423;46.510;6.686;2022-12-20T01:56:26;3.85;;;2.03;;
57593;SDS011;43423;46.510;6.686;2022-12-20T01:58:52;5.32;;;2.38;;
57593;SDS011;43423;46.510;6.686;2022-12-20T02:01:21;4.72;;;1.90;;
57593;SDS011;43423;46.510;6.686;2022-12-20T02:03:47;4.72;;;2.63;;
57593;SDS011;43423;46.510;6.686;2022-12-20T02:06:16;3.20;;;2.30;;
57593;SDS011;43423;46.510;6.686;2022-12-20T02:08:44;6.15;;;2.35;;
57593;SDS011;43423;46.510;6.686;2022-12-20T02:16:48;7.00;;;2.72;;
57593;SDS011;43423;46.510;6.686;2022-12-20T02:22:28;4.30;;;2.78;;
57593;SDS011;43423;46.510;6.686;2022-12-20T02:30:33;4.25;;;2.50;;
57593;SDS011;43423;46.510;6.686;2022-12-20T02:33:02;4.15;;;2.33;;
57593;SDS011;43423;46.510;6.686;2022-12-20T02:35:32;4.93;;;2.63;;
57593;SDS011;43423;46.510;6.686;2022-12-20T02:38:01;3.75;;;2.45;;
57593;SDS011;43423;46.510;6.686;2022-12-20T02:40:47;6.05;;;2.45;;
57593;SDS011;43423;46.510;6.686;2022-12-20T02:43:17;5.80;;;2.58;;
57593;SDS011;43423;46.510;6.686;2022-12-20T02:46:03;4.60;;;2.33;;
57593;SDS011;43423;46.510;6.686;2022-12-20T02:48:29;6.03;;;2.67;;
57593;SDS011;43423;46.510;6.686;2022-12-20T02:50:57;6.00;;;2.33;;
57593;SDS011;43423;46.510;6.686;2022-12-20T02:53:24;3.05;;;1.88;;
57593;SDS011;43423;46.510;6.686;2022-12-20T02:55:58;4.20;;;2.50;;
57593;SDS011;43423;46.510;6.686;2022-12-20T02:58:35;3.88;;;2.10;;
57593;SDS011;43423;46.510;6.686;2022-12-20T03:01:07;4.80;;;2.65;;
57593;SDS011;43423;46.510;6.686;2022-12-20T03:03:38;3.75;;;2.60;;
57593;SDS011;43423;46.510;6.686;2022-12-20T03:06:04;6.68;;;3.08;;
57593;SDS011;43423;46.510;6.686;2022-12-20T03:08:31;5.97;;;2.83;;
57593;SDS011;43423;46.510;6.686;2022-12-20T03:10:56;5.88;;;2.65;;
57593;SDS011;43423;46.510;6.686;2022-12-20T03:13:23;6.32;;;2.55;;
57593;SDS011;43423;46.510;6.686;2022-12-20T03:15:49;6.65;;;3.20;;
57593;SDS011;43423;46.510;6.686;2022-12-20T03:18:15;4.22;;;2.35;;
57593;SDS011;43423;46.510;6.686;2022-12-20T03:20:41;5.72;;;2.22;;
57593;SDS011;43423;46.510;6.686;2022-12-20T03:23:07;5.65;;;2.60;;
57593;SDS011;43423;46.510;6.686;2022-12-20T03:25:32;5.72;;;2.63;;
57593;SDS011;43423;46.510;6.686;2022-12-20T03:27:58;10.00;;;2.80;;
57593;SDS011;43423;46.510;6.686;2022-12-20T03:30:23;8.07;;;3.22;;
57593;SDS011;43423;46.510;6.686;2022-12-20T03:32:49;11.40;;;3.10;;
57593;SDS011;43423;46.510;6.686;2022-12-20T03:35:15;8.10;;;3.15;;
57593;SDS011;43423;46.510;6.686;2022-12-20T03:37:40;10.10;;;3.22;;
57593;SDS011;43423;46.510;6.686;2022-12-20T03:40:06;14.20;;;4.55;;
57593;SDS011;43423;46.510;6.686;2022-12-20T03:42:33;15.93;;;5.28;;
57593;SDS011;43423;46.510;6.686;2022-12-20T03:44:58;18.63;;;6.07;;
57593;SDS011;43423;46.510;6.686;2022-12-20T03:47:24;9.88;;;3.97;;
57593;SDS011;43423;46.510;6.686;2022-12-20T03:49:50;13.15;;;4.40;;
57593;SDS011;43423;46.510;6.686;2022-12-20T03:52:16;12.45;;;4.45;;
57593;SDS011;43423;46.510;6.686;2022-12-20T03:54:42;5.38;;;2.85;;
57593;SDS011;43423;46.510;6.686;2022-12-20T03:57:08;4.80;;;2.33;;
57593;SDS011;43423;46.510;6.686;2022-12-20T03:59:33;4.78;;;2.72;;
57593;SDS011;43423;46.510;6.686;2022-12-20T04:02:00;3.92;;;2.85;;
57593;SDS011;43423;46.510;6.686;2022-12-20T04:04:26;5.63;;;2.58;;
57593;SDS011;43423;46.510;6.686;2022-12-20T04:06:52;5.82;;;2.30;;
57593;SDS011;43423;46.510;6.686;2022-12-20T04:09:17;4.80;;;2.28;;
57593;SDS011;43423;46.510;6.686;2022-12-20T04:11:43;5.57;;;3.00;;
57593;SDS011;43423;46.510;6.686;2022-12-20T04:14:08;4.97;;;2.33;;
57593;SDS011;43423;46.510;6.686;2022-12-20T04:16:34;3.95;;;2.22;;
57593;SDS011;43423;46.510;6.686;2022-12-20T04:19:00;3.92;;;2.15;;
57593;SDS011;43423;46.510;6.686;2022-12-20T04:21:27;4.32;;;2.40;;
57593;SDS011;43423;46.510;6.686;2022-12-20T04:23:54;4.93;;;2.33;;
57593;SDS011;43423;46.510;6.686;2022-12-20T04:26:21;3.80;;;2.08;;
57593;SDS011;43423;46.510;6.686;2022-12-20T04:28:47;3.20;;;2.47;;
57593;SDS011;43423;46.510;6.686;2022-12-20T04:31:12;4.45;;;2.45;;
57593;SDS011;43423;46.510;6.686;2022-12-20T04:33:38;4.93;;;2.33;;
57593;SDS011;43423;46.510;6.686;2022-12-20T04:36:04;2.95;;;2.08;;
57593;SDS011;43423;46.510;6.686;2022-12-20T04:38:30;4.63;;;2.55;;
57593;SDS011;43423;46.510;6.686;2022-12-20T04:40:56;6.78;;;2.40;;
57593;SDS011;43423;46.510;6.686;2022-12-20T04:43:22;5.40;;;2.40;;
57593;SDS011;43423;46.510;6.686;2022-12-20T04:45:49;6.25;;;2.45;;
57593;SDS011;43423;46.510;6.686;2022-12-20T04:48:17;7.10;;;2.30;;
57593;SDS011;43423;46.510;6.686;2022-12-20T04:50:47;5.50;;;2.45;;
57593;SDS011;43423;46.510;6.686;2022-12-20T04:53:13;4.95;;;2.67;;
57593;SDS011;43423;46.510;6.686;2022-12-20T04:55:58;5.35;;;2.38;;
57593;SDS011;43423;46.510;6.686;2022-12-20T04:58:23;6.97;;;2.55;;
57593;SDS011;43423;46.510;6.686;2022-12-20T05:00:49;5.32;;;2.25;;
57593;SDS011;43423;46.510;6.686;2022-12-20T05:03:20;5.25;;;2.55;;
57593;SDS011;43423;46.510;6.686;2022-12-20T05:05:46;3.17;;;2.40;;
57593;SDS011;43423;46.510;6.686;2022-12-20T05:08:12;3.88;;;2.30;;
57593;SDS011;43423;46.510;6.686;2022-12-20T05:10:38;3.83;;;2.17;;
57593;SDS011;43423;46.510;6.686;2022-12-20T05:13:04;5.05;;;2.20;;
57593;SDS011;43423;46.510;6.686;2022-12-20T05:15:30;4.25;;;2.30;;
57593;SDS011;43423;46.510;6.686;2022-12-20T05:17:55;5.00;;;2.25;;
57593;SDS011;43423;46.510;6.686;2022-12-20T05:20:27;4.10;;;2.53;;
57593;SDS011;43423;46.510;6.686;2022-12-20T05:22:54;5.47;;;2.70;;
57593;SDS011;43423;46.510;6.686;2022-12-20T05:25:42;3.75;;;2.22;;
57593;SDS011;43423;46.510;6.686;2022-12-20T05:28:22;5.68;;;2.47;;
57593;SDS011;43423;46.510;6.686;2022-12-20T05:30:48;5.15;;;2.53;;
57593;SDS011;43423;46.510;6.686;2022-12-20T05:33:13;3.67;;;2.03;;
57593;SDS011;43423;46.510;6.686;2022-12-20T05:35:39;3.60;;;2.22;;
57593;SDS011;43423;46.510;6.686;2022-12-20T05:38:04;4.38;;;2.85;;
57593;SDS011;43423;46.510;6.686;2022-12-20T05:40:30;4.35;;;2.53;;
57593;SDS011;43423;46.510;6.686;2022-12-20T05:42:55;3.38;;;2.10;;
57593;SDS011;43423;46.510;6.686;2022-12-20T05:45:21;5.05;;;2.63;;
57593;SDS011;43423;46.510;6.686;2022-12-20T05:47:46;2.75;;;1.73;;
57593;SDS011;43423;46.510;6.686;2022-12-20T05:50:12;3.67;;;2.80;;
57593;SDS011;43423;46.510;6.686;2022-12-20T05:52:38;2.58;;;2.08;;
57593;SDS011;43423;46.510;6.686;2022-12-20T05:55:03;3.30;;;1.80;;
57593;SDS011;43423;46.510;6.686;2022-12-20T05:57:29;3.38;;;1.85;;
57593;SDS011;43423;46.510;6.686;2022-12-20T05:59:55;9.02;;;1.92;;
57593;SDS011;43423;46.510;6.686;2022-12-20T06:02:21;5.22;;;2.47;;
57593;SDS011;43423;46.510;6.686;2022-12-20T06:04:47;3.75;;;2.13;;
57593;SDS011;43423;46.510;6.686;2022-12-20T06:07:12;4.03;;;1.92;;
57593;SDS011;43423;46.510;6.686;2022-12-20T06:09:38;3.53;;;1.77;;
57593;SDS011;43423;46.510;6.686;2022-12-20T06:12:03;2.80;;;2.05;;
57593;SDS011;43423;46.510;6.686;2022-12-20T06:14:29;4.22;;;2.20;;
57593;SDS011;43423;46.510;6.686;2022-12-20T06:16:55;3.40;;;2.03;;
57593;SDS011;43423;46.510;6.686;2022-12-20T06:19:20;4.03;;;2.30;;
57593;SDS011;43423;46.510;6.686;2022-12-20T06:21:46;6.40;;;2.50;;
57593;SDS011;43423;46.510;6.686;2022-12-20T06:24:11;4.95;;;2.63;;
57593;SDS011;43423;46.510;6.686;2022-12-20T06:26:37;4.70;;;3.10;;
57593;SDS011;43423;46.510;6.686;2022-12-20T06:29:03;4.63;;;2.42;;
57593;SDS011;43423;46.510;6.686;2022-12-20T06:31:34;8.45;;;3.03;;
57593;SDS011;43423;46.510;6.686;2022-12-20T06:34:00;7.60;;;2.67;;
57593;SDS011;43423;46.510;6.686;2022-12-20T06:36:26;4.97;;;2.05;;
57593;SDS011;43423;46.510;6.686;2022-12-20T06:38:52;4.03;;;2.25;;
57593;SDS011;43423;46.510;6.686;2022-12-20T06:41:17;4.38;;;2.30;;
57593;SDS011;43423;46.510;6.686;2022-12-20T06:43:43;6.05;;;2.70;;
57593;SDS011;43423;46.510;6.686;2022-12-20T06:46:09;5.78;;;2.35;;
57593;SDS011;43423;46.510;6.686;2022-12-20T06:48:35;3.65;;;2.22;;
57593;SDS011;43423;46.510;6.686;2022-12-20T06:51:00;4.43;;;2.30;;
57593;SDS011;43423;46.510;6.686;2022-12-20T06:53:26;7.68;;;2.42;;
57593;SDS011;43423;46.510;6.686;2022-12-20T06:55:52;4.53;;;2.22;;
57593;SDS011;43423;46.510;6.686;2022-12-20T06:58:18;3.72;;;2.53;;
57593;SDS011;43423;46.510;6.686;2022-12-20T07:00:44;4.50;;;2.42;;
57593;SDS011;43423;46.510;6.686;2022-12-20T07:03:10;7.72;;;3.33;;
57593;SDS011;43423;46.510;6.686;2022-12-20T07:05:36;5.07;;;2.47;;
57593;SDS011;43423;46.510;6.686;2022-12-20T07:08:02;7.20;;;3.60;;
57593;SDS011;43423;46.510;6.686;2022-12-20T07:10:29;5.50;;;3.00;;
57593;SDS011;43423;46.510;6.686;2022-12-20T07:12:55;5.43;;;2.25;;
57593;SDS011;43423;46.510;6.686;2022-12-20T07:15:21;5.03;;;2.30;;
57593;SDS011;43423;46.510;6.686;2022-12-20T07:17:47;4.00;;;2.50;;
57593;SDS011;43423;46.510;6.686;2022-12-20T07:20:13;6.28;;;2.25;;
57593;SDS011;43423;46.510;6.686;2022-12-20T07:22:39;6.43;;;2.20;;
57593;SDS011;43423;46.510;6.686;2022-12-20T07:25:04;4.65;;;2.13;;
57593;SDS011;43423;46.510;6.686;2022-12-20T07:27:30;6.97;;;2.42;;
57593;SDS011;43423;46.510;6.686;2022-12-20T07:29:55;4.25;;;2.13;;
57593;SDS011;43423;46.510;6.686;2022-12-20T07:32:21;4.97;;;2.55;;
57593;SDS011;43423;46.510;6.686;2022-12-20T07:34:47;6.10;;;2.75;;
57593;SDS011;43423;46.510;6.686;2022-12-20T07:37:12;5.88;;;2.95;;
57593;SDS011;43423;46.510;6.686;2022-12-20T07:39:39;5.13;;;2.47;;
57593;SDS011;43423;46.510;6.686;2022-12-20T07:42:06;3.83;;;2.17;;
57593;SDS011;43423;46.510;6.686;2022-12-20T07:44:33;4.50;;;2.38;;
57593;SDS011;43423;46.510;6.686;2022-12-20T07:46:59;3.90;;;2.47;;
57593;SDS011;43423;46.510;6.686;2022-12-20T07:49:25;4.53;;;2.50;;
57593;SDS011;43423;46.510;6.686;2022-12-20T07:51:52;4.95;;;2.53;;
57593;SDS011;43423;46.510;6.686;2022-12-20T07:54:22;4.30;;;2.47;;
57593;SDS011;43423;46.510;6.686;2022-12-20T07:56:55;4.30;;;2.25;;
57593;SDS011;43423;46.510;6.686;2022-12-20T07:59:27;4.28;;;2.35;;
57593;SDS011;43423;46.510;6.686;2022-12-20T08:01:59;2.72;;;2.00;;
57593;SDS011;43423;46.510;6.686;2022-12-20T08:04:25;3.30;;;2.10;;
57593;SDS011;43423;46.510;6.686;2022-12-20T08:06:54;5.03;;;2.45;;
57593;SDS011;43423;46.510;6.686;2022-12-20T08:09:20;10.25;;;2.78;;
57593;SDS011;43423;46.510;6.686;2022-12-20T08:11:48;7.68;;;2.92;;
57593;SDS011;43423;46.510;6.686;2022-12-20T08:14:15;3.05;;;2.00;;
57593;SDS011;43423;46.510;6.686;2022-12-20T08:16:43;3.47;;;1.95;;
57593;SDS011;43423;46.510;6.686;2022-12-20T08:19:09;4.18;;;2.13;;
57593;SDS011;43423;46.510;6.686;2022-12-20T08:21:35;4.70;;;2.58;;
57593;SDS011;43423;46.510;6.686;2022-12-20T08:24:01;3.90;;;2.17;;
57593;SDS011;43423;46.510;6.686;2022-12-20T08:26:26;4.68;;;2.55;;
57593;SDS011;43423;46.510;6.686;2022-12-20T08:28:53;3.40;;;2.08;;
57593;SDS011;43423;46.510;6.686;2022-12-20T08:31:19;6.97;;;2.30;;
57593;SDS011;43423;46.510;6.686;2022-12-20T08:33:45;3.40;;;1.60;;
57593;SDS011;43423;46.510;6.686;2022-12-20T08:36:12;3.10;;;1.88;;
57593;SDS011;43423;46.510;6.686;2022-12-20T08:38:38;4.93;;;2.65;;
57593;SDS011;43423;46.510;6.686;2022-12-20T08:41:09;4.47;;;2.45;;
57593;SDS011;43423;46.510;6.686;2022-12-20T08:43:37;7.65;;;2.53;;
57593;SDS011;43423;46.510;6.686;2022-12-20T08:46:03;4.97;;;2.05;;
57593;SDS011;43423;46.510;6.686;2022-12-20T08:48:29;7.63;;;2.20;;
57593;SDS011;43423;46.510;6.686;2022-12-20T08:50:56;6.47;;;2.10;;
57593;SDS011;43423;46.510;6.686;2022-12-20T08:53:25;6.10;;;2.15;;
57593;SDS011;43423;46.510;6.686;2022-12-20T08:55:51;4.90;;;2.35;;
57593;SDS011;43423;46.510;6.686;2022-12-20T08:58:17;5.25;;;2.22;;
57593;SDS011;43423;46.510;6.686;2022-12-20T09:00:44;4.53;;;2.00;;
57593;SDS011;43423;46.510;6.686;2022-12-20T09:03:11;6.00;;;2.33;;
57593;SDS011;43423;46.510;6.686;2022-12-20T09:05:45;6.10;;;2.50;;
57593;SDS011;43423;46.510;6.686;2022-12-20T09:08:11;9.18;;;2.90;;
57593;SDS011;43423;46.510;6.686;2022-12-20T09:10:38;4.75;;;2.85;;
57593;SDS011;43423;46.510;6.686;2022-12-20T09:13:03;4.05;;;2.60;;
57593;SDS011;43423;46.510;6.686;2022-12-20T09:15:29;4.40;;;2.50;;
57593;SDS011;43423;46.510;6.686;2022-12-20T09:17:55;7.15;;;2.90;;
57593;SDS011;43423;46.510;6.686;2022-12-20T09:20:22;4.95;;;3.30;;
57593;SDS011;43423;46.510;6.686;2022-12-20T09:22:47;5.35;;;3.30;;
57593;SDS011;43423;46.510;6.686;2022-12-20T09:25:13;8.20;;;2.97;;
57593;SDS011;43423;46.510;6.686;2022-12-20T09:27:39;8.68;;;3.92;;
57593;SDS011;43423;46.510;6.686;2022-12-20T09:30:05;4.88;;;3.15;;
57593;SDS011;43423;46.510;6.686;2022-12-20T09:32:31;5.07;;;3.08;;
57593;SDS011;43423;46.510;6.686;2022-12-20T09:34:56;6.10;;;2.80;;
57593;SDS011;43423;46.510;6.686;2022-12-20T09:37:22;8.02;;;2.80;;
57593;SDS011;43423;46.510;6.686;2022-12-20T09:39:48;8.63;;;2.80;;
57593;SDS011;43423;46.510;6.686;2022-12-20T09:42:23;5.38;;;3.00;;
57593;SDS011;43423;46.510;6.686;2022-12-20T09:44:51;13.48;;;2.90;;
57593;SDS011;43423;46.510;6.686;2022-12-20T09:47:19;17.52;;;3.65;;
57593;SDS011;43423;46.510;6.686;2022-12-20T09:49:49;6.82;;;3.10;;
57593;SDS011;43423;46.510;6.686;2022-12-20T09:55:29;11.43;;;3.25;;
57593;SDS011;43423;46.510;6.686;2022-12-20T09:58:03;7.03;;;2.67;;
57593;SDS011;43423;46.510;6.686;2022-12-20T10:00:34;8.55;;;3.30;;
57593;SDS011;43423;46.510;6.686;2022-12-20T10:03:26;5.70;;;2.80;;
57593;SDS011;43423;46.510;6.686;2022-12-20T10:06:07;8.02;;;3.03;;
57593;SDS011;43423;46.510;6.686;2022-12-20T10:13:51;4.10;;;2.72;;
57593;SDS011;43423;46.510;6.686;2022-12-20T10:19:07;4.68;;;2.28;;
57593;SDS011;43423;46.510;6.686;2022-12-20T10:22:16;3.37;;;1.50;;
57593;SDS011;43423;46.510;6.686;2022-12-20T10:25:29;2.72;;;1.38;;
57593;SDS011;43423;46.510;6.686;2022-12-20T10:27:43;3.88;;;1.70;;
57593;SDS011;43423;46.510;6.686;2022-12-20T10:30:14;2.22;;;1.15;;
57593;SDS011;43423;46.510;6.686;2022-12-20T10:32:46;5.35;;;1.20;;
57593;SDS011;43423;46.510;6.686;2022-12-20T10:35:16;1.52;;;0.90;;
57593;SDS011;43423;46.510;6.686;2022-12-20T10:40:24;6.85;;;3.10;;
57593;SDS011;43423;46.510;6.686;2022-12-20T10:42:52;7.47;;;3.13;;
57593;SDS011;43423;46.510;6.686;2022-12-20T10:47:48;3.08;;;2.30;;
57593;SDS011;43423;46.510;6.686;2022-12-20T10:50:19;4.35;;;2.20;;
57593;SDS011;43423;46.510;6.686;2022-12-20T10:55:50;4.60;;;2.08;;
57593;SDS011;43423;46.510;6.686;2022-12-20T10:58:35;5.28;;;2.40;;
57593;SDS011;43423;46.510;6.686;2022-12-20T11:01:10;4.13;;;2.47;;
57593;SDS011;43423;46.510;6.686;2022-12-20T11:03:49;3.13;;;2.00;;
57593;SDS011;43423;46.510;6.686;2022-12-20T11:06:17;6.13;;;2.40;;
57593;SDS011;43423;46.510;6.686;2022-12-20T11:08:45;12.75;;;2.20;;
57593;SDS011;43423;46.510;6.686;2022-12-20T11:11:19;3.15;;;2.15;;
57593;SDS011;43423;46.510;6.686;2022-12-20T11:13:47;3.60;;;2.20;;
57593;SDS011;43423;46.510;6.686;2022-12-20T11:29:27;5.78;;;2.88;;
57593;SDS011;43423;46.510;6.686;2022-12-20T11:43:17;6.70;;;3.45;;
57593;SDS011;43423;46.510;6.686;2022-12-20T11:46:26;5.53;;;2.92;;
57593;SDS011;43423;46.510;6.686;2022-12-20T11:49:21;6.97;;;3.05;;
57593;SDS011;43423;46.510;6.686;2022-12-20T11:52:02;6.97;;;2.83;;
57593;SDS011;43423;46.510;6.686;2022-12-20T11:54:36;5.45;;;2.80;;
57593;SDS011;43423;46.510;6.686;2022-12-20T11:57:17;6.07;;;3.55;;
57593;SDS011;43423;46.510;6.686;2022-12-20T11:59:49;6.20;;;3.28;;
57593;SDS011;43423;46.510;6.686;2022-12-20T12:02:26;4.43;;;2.55;;
57593;SDS011;43423;46.510;6.686;2022-12-20T12:05:05;4.28;;;2.60;;
57593;SDS011;43423;46.510;6.686;2022-12-20T12:07:40;4.63;;;2.67;;
57593;SDS011;43423;46.510;6.686;2022-12-20T12:12:45;5.43;;;2.63;;
57593;SDS011;43423;46.510;6.686;2022-12-20T12:15:39;4.22;;;2.03;;
57593;SDS011;43423;46.510;6.686;2022-12-20T12:21:15;2.35;;;1.40;;
57593;SDS011;43423;46.510;6.686;2022-12-20T12:26:34;1.60;;;1.27;;
57593;SDS011;43423;46.510;6.686;2022-12-20T12:29:09;1.77;;;1.02;;
57593;SDS011;43423;46.510;6.686;2022-12-20T12:31:38;6.30;;;2.60;;
57593;SDS011;43423;46.510;6.686;2022-12-20T12:34:08;4.57;;;2.60;;
57593;SDS011;43423;46.510;6.686;2022-12-20T12:45:05;7.85;;;4.63;;
57593;SDS011;43423;46.510;6.686;2022-12-20T12:47:44;5.03;;;3.20;;
57593;SDS011;43423;46.510;6.686;2022-12-20T12:50:24;6.70;;;3.22;;
57593;SDS011;43423;46.510;6.686;2022-12-20T12:52:55;4.05;;;2.55;;
57593;SDS011;43423;46.510;6.686;2022-12-20T13:03:36;5.05;;;2.83;;
57593;SDS011;43423;46.510;6.686;2022-12-20T13:11:42;3.67;;;2.40;;
57593;SDS011;43423;46.510;6.686;2022-12-20T13:14:45;4.43;;;2.40;;
57593;SDS011;43423;46.510;6.686;2022-12-20T13:38:34;4.40;;;1.90;;
57593;SDS011;43423;46.510;6.686;2022-12-20T13:44:47;1.92;;;1.30;;
57593;SDS011;43423;46.510;6.686;2022-12-20T13:47:26;2.85;;;1.70;;
57593;SDS011;43423;46.510;6.686;2022-12-20T13:49:58;3.45;;;1.38;;
57593;SDS011;43423;46.510;6.686;2022-12-20T13:52:27;2.40;;;1.23;;
57593;SDS011;43423;46.510;6.686;2022-12-20T13:54:54;7.15;;;1.30;;
57593;SDS011;43423;46.510;6.686;2022-12-20T13:57:39;1.38;;;1.02;;
57593;SDS011;43423;46.510;6.686;2022-12-20T14:00:16;6.47;;;1.87;;
57593;SDS011;43423;46.510;6.686;2022-12-20T14:02:43;2.45;;;1.92;;
57593;SDS011;43423;46.510;6.686;2022-12-20T14:05:17;3.45;;;1.67;;
57593;SDS011;43423;46.510;6.686;2022-12-20T14:07:58;3.90;;;1.88;;
57593;SDS011;43423;46.510;6.686;2022-12-20T14:10:25;3.03;;;1.95;;
57593;SDS011;43423;46.510;6.686;2022-12-20T14:12:53;6.38;;;1.67;;
57593;SDS011;43423;46.510;6.686;2022-12-20T14:15:40;3.70;;;1.80;;
57593;SDS011;43423;46.510;6.686;2022-12-20T14:18:05;5.18;;;2.17;;
57593;SDS011;43423;46.510;6.686;2022-12-20T14:20:45;8.93;;;2.15;;
57593;SDS011;43423;46.510;6.686;2022-12-20T14:23:18;9.25;;;2.38;;
57593;SDS011;43423;46.510;6.686;2022-12-20T14:25:47;4.93;;;2.20;;
57593;SDS011;43423;46.510;6.686;2022-12-20T14:28:24;5.80;;;2.17;;
57593;SDS011;43423;46.510;6.686;2022-12-20T14:30:55;4.20;;;2.53;;
57593;SDS011;43423;46.510;6.686;2022-12-20T14:33:42;4.88;;;2.05;;
57593;SDS011;43423;46.510;6.686;2022-12-20T14:36:08;4.10;;;1.88;;
57593;SDS011;43423;46.510;6.686;2022-12-20T14:38:41;5.32;;;2.20;;
57593;SDS011;43423;46.510;6.686;2022-12-20T14:43:57;3.80;;;2.22;;
57593;SDS011;43423;46.510;6.686;2022-12-20T14:46:26;8.38;;;2.35;;
57593;SDS011;43423;46.510;6.686;2022-12-20T14:49:15;5.88;;;2.40;;
57593;SDS011;43423;46.510;6.686;2022-12-20T14:51:48;10.82;;;2.25;;
57593;SDS011;43423;46.510;6.686;2022-12-20T14:54:21;6.18;;;2.67;;
57593;SDS011;43423;46.510;6.686;2022-12-20T14:56:51;3.97;;;1.85;;
57593;SDS011;43423;46.510;6.686;2022-12-20T14:59:27;4.82;;;1.88;;
57593;SDS011;43423;46.510;6.686;2022-12-20T15:02:04;4.18;;;2.13;;
57593;SDS011;43423;46.510;6.686;2022-12-20T15:05:50;6.65;;;2.28;;
57593;SDS011;43423;46.510;6.686;2022-12-20T15:13:45;10.40;;;2.33;;
57593;SDS011;43423;46.510;6.686;2022-12-20T15:16:21;7.15;;;2.58;;
57593;SDS011;43423;46.510;6.686;2022-12-20T15:18:52;4.80;;;2.25;;
57593;SDS011;43423;46.510;6.686;2022-12-20T15:23:55;2.83;;;1.65;;
57593;SDS011;43423;46.510;6.686;2022-12-20T15:26:23;2.60;;;1.60;;
57593;SDS011;43423;46.510;6.686;2022-12-20T15:28:50;3.22;;;1.73;;
57593;SDS011;43423;46.510;6.686;2022-12-20T15:31:16;4.22;;;2.00;;
57593;SDS011;43423;46.510;6.686;2022-12-20T15:33:44;5.68;;;3.13;;
57593;SDS011;43423;46.510;6.686;2022-12-20T15:36:20;6.57;;;3.15;;
57593;SDS011;43423;46.510;6.686;2022-12-20T15:38:51;6.72;;;2.83;;
57593;SDS011;43423;46.510;6.686;2022-12-20T15:43:46;3.53;;;2.10;;
57593;SDS011;43423;46.510;6.686;2022-12-20T15:46:14;8.60;;;2.35;;
57593;SDS011;43423;46.510;6.686;2022-12-20T15:48:40;4.90;;;1.85;;
57593;SDS011;43423;46.510;6.686;2022-12-20T15:51:13;9.43;;;2.50;;
57593;SDS011;43423;46.510;6.686;2022-12-20T15:53:42;7.53;;;2.60;;
57593;SDS011;43423;46.510;6.686;2022-12-20T15:56:13;7.90;;;2.53;;
57593;SDS011;43423;46.510;6.686;2022-12-20T15:58:44;5.55;;;2.47;;
57593;SDS011;43423;46.510;6.686;2022-12-20T16:01:12;6.18;;;2.83;;
57593;SDS011;43423;46.510;6.686;2022-12-20T16:03:42;6.82;;;1.88;;
57593;SDS011;43423;46.510;6.686;2022-12-20T16:06:09;7.80;;;2.45;;
57593;SDS011;43423;46.510;6.686;2022-12-20T16:08:40;3.53;;;2.30;;
57593;SDS011;43423;46.510;6.686;2022-12-20T16:11:09;4.88;;;2.70;;
57593;SDS011;43423;46.510;6.686;2022-12-20T16:13:44;4.90;;;2.67;;
57593;SDS011;43423;46.510;6.686;2022-12-20T16:16:18;6.82;;;3.45;;
57593;SDS011;43423;46.510;6.686;2022-12-20T16:18:49;5.30;;;3.05;;
57593;SDS011;43423;46.510;6.686;2022-12-20T16:21:16;8.27;;;3.08;;
57593;SDS011;43423;46.510;6.686;2022-12-20T16:23:46;4.78;;;2.92;;
57593;SDS011;43423;46.510;6.686;2022-12-20T16:26:14;6.37;;;2.57;;
57593;SDS011;43423;46.510;6.686;2022-12-20T16:28:40;6.35;;;2.95;;
57593;SDS011;43423;46.510;6.686;2022-12-20T16:31:10;5.47;;;2.60;;
57593;SDS011;43423;46.510;6.686;2022-12-20T16:33:50;8.68;;;4.13;;
57593;SDS011;43423;46.510;6.686;2022-12-20T16:36:16;9.32;;;3.97;;
57593;SDS011;43423;46.510;6.686;2022-12-20T16:38:42;9.60;;;4.25;;
57593;SDS011;43423;46.510;6.686;2022-12-20T16:41:13;9.07;;;3.38;;
57593;SDS011;43423;46.510;6.686;2022-12-20T16:43:40;8.43;;;2.63;;
57593;SDS011;43423;46.510;6.686;2022-12-20T16:46:11;5.10;;;2.95;;
57593;SDS011;43423;46.510;6.686;2022-12-20T16:51:08;5.20;;;2.22;;
57593;SDS011;43423;46.510;6.686;2022-12-20T16:54:06;5.55;;;2.63;;
57593;SDS011;43423;46.510;6.686;2022-12-20T16:56:37;8.15;;;2.75;;
57593;SDS011;43423;46.510;6.686;2022-12-20T16:59:02;5.60;;;2.85;;
57593;SDS011;43423;46.510;6.686;2022-12-20T17:01:35;5.70;;;2.85;;
57593;SDS011;43423;46.510;6.686;2022-12-20T17:04:03;8.77;;;3.80;;
57593;SDS011;43423;46.510;6.686;2022-12-20T17:06:29;11.93;;;4.53;;
57593;SDS011;43423;46.510;6.686;2022-12-20T17:08:56;11.70;;;4.43;;
57593;SDS011;43423;46.510;6.686;2022-12-20T17:14:22;11.90;;;4.22;;
57593;SDS011;43423;46.510;6.686;2022-12-20T17:16:48;9.77;;;3.63;;